עמוד ראשי
METAR-TAF:

METAR-TAF

שדות תעופה :

Benbecula, סקוטלנד

קו רוחב: 57-28N, קו אורך: 007-22W, גובה: 6מטר

תצפית מזג אוויר נוכחית

הדו"ח נערך לפני 24דקות, בשעה 23:20 UTC
רוח 5קשר מכיוון מערב/צפון-מערב
טמפרטורת 11 צלסיוס
לחות 100%
לחץ 1019 hPa
ראות 10 קילומטר או יותר

METAR: EGPL 182320Z AUTO 30005KT 9999 OVC000/// 11/11 Q1019

זמן: 00:44 (23:44 UTC)

תחזית

הדו"ח נערך לפני 12 שעות ו 46דקות, בשעה 10:58 UTC
תחזית בתוקף מ 18 ב 12 UTC עד 18 ב 15 UTC
רוח 5קשר מכיוון צפון
ראות 10 קילומטר או יותר
מעט עננים בגובה 1000רגל
עננים פזורים בגובה 1600רגל
יעשה מ
18 ב 12 UTC עד 18 ב 15 UTC
רוח 10קשר מכיוון מערב/צפון-מערב
הסתברות 30% :
זמנית מ -
18 ב 12 UTC עד 18 ב 15 UTC
ראות: 7000מטר
עננים בינוניים בגובה 1200רגל

TAF: EGPL 181058Z 1812/1815 36005KT 9999 FEW010 SCT016 BECMG 1812/1815 30010KT PROB30 TEMPO 1812/1815 7000 BKN012

תצפיות ותחזיות מזג אוויר לגבי יותר מ- 4,000 שדות תעופה ברחבי העולם. דוחות METAR ו- TAF.

התחנות הזמינות מסומנות בנקודות צהובות ואדומות על גבי המפה.

העבר את העכבר לנקודה הצבעונית על מנת לראות את שם התחנה.

לאחר מכן, לחץ כדי לראות את תוכן ואת תחזיות מזג האוויר.

כדי לשנות את המפה: לחץ על הכפתורים הירוקים עם הפלוס השחור כדי להתקרב; על הכפתור הירוק עם המקף כדי להתרחק; או בחיצים הירוקים למפות סמוכות.


METAR-TAF: